Estación Meteorológica Peña el Pijo (Robertgarden) [ 11/19/19 11:20:38 CET ]

Fecha Hora Presion(HPa) Temp (°C) Humedad % Rocio (°C) Viento ( m/s) Direccion Lluvia 1Hora(mm) Lluvia 24H(mm) LLuvia Total(mm)
2019-Mar-19 01:01:38 1011.600 4.0 81 1.1         184.40
2019-Mar-19 02:09:03 1011.500 3.5 82 0.7         184.40
2019-Mar-19 03:01:52 1011.200 3.4 84 0.9         184.40
2019-Mar-19 04:01:49 1010.200 2.8 84 0.3         184.40
2019-Mar-19 05:01:35 1010.400 3.2 85 0.9         184.40
2019-Mar-19 06:02:00 1010.900 3.5 86 1.4         184.40
2019-Mar-19 07:01:54 1010.600 3.6 87 1.6         184.40
2019-Mar-19 08:01:37 1011.000 3.2 87 1.2         184.40
2019-Mar-19 09:01:37 1011.500 4.3 87 2.2         184.40
2019-Mar-19 10:01:35 1011.400 5.8 82 2.9         184.40
2019-Mar-19 11:01:57 1010.900 9.2 56 0.8 2.0 E     184.40
2019-Mar-19 12:01:37 1011.000 10.8 47 -0.1 0.6 NNE     184.40
2019-Mar-19 13:01:32 1010.800 11.6 40 -1.6 1.2 ENE     184.40
2019-Mar-19 14:01:22 1010.100 12.4 38 -1.6         184.40
2019-Mar-19 15:01:28 1010.100 11.3 40 -1.8 2.9 E     184.40
2019-Mar-19 16:01:29 1010.000 11.2 39 -2.3 1.0 NNE     184.40
2019-Mar-19 17:01:43 1009.700 12.3 38 -1.7         184.40
2019-Mar-19 18:01:41 1010.100 10.1 42 -2.3         184.40
2019-Mar-19 19:01:23 1010.500 9.8 43 -2.3         184.40
2019-Mar-19 20:01:39 1011.100 8.3 47 -2.4         184.40
2019-Mar-19 21:01:55 1011.900 7.9 54 -0.9         184.40
2019-Mar-19 22:02:00 1012.700 6.8 65 0.7         184.40
2019-Mar-19 23:01:39 1013.200 6.4 70 1.4         184.40

Temperatura Máxima:12°    Temperatura Mínima:
Presión Máxima:1013.200 Hpa    Presión Mínima:1009.700 Hpa


Volver